Time;durP1;ratioP1;P1;durP2;ratioP2;P2;SDS_P1;SDS_P2;PMS_P1;PMS_P2;Temp;Humidity;BMP_temperature;BMP_pressure;BME280_temperature;BME280_humidity;BME280_pressure;Samples;Min_cycle;Max_cycle;Signal;HPM_P1;HPM_P2
2022/10/25 00:01:48;;;;;;;7.27;6.73;;;;;;;10.82;100.00;96880.22;5096040;28;20196;-58
2022/10/25 00:04:14;;;;;;;6.80;6.30;;;;;;;10.76;100.00;96895.00;5096195;28;20251;-59
2022/10/25 00:06:41;;;;;;;8.03;7.50;;;;;;;10.74;100.00;96891.84;5095843;28;20208;-56
2022/10/25 00:09:07;;;;;;;6.10;5.73;;;;;;;10.67;100.00;96888.50;5095979;28;20306;-57
2022/10/25 00:11:32;;;;;;;5.43;5.13;;;;;;;10.68;100.00;96887.50;5095712;28;20542;-56
2022/10/25 00:14:01;;;;;;;6.27;5.90;;;;;;;10.70;100.00;96888.03;5095545;28;20263;-56
2022/10/25 00:16:35;;;;;;;6.60;6.20;;;;;;;10.68;100.00;96889.31;5096049;28;20172;-58
2022/10/25 00:19:00;;;;;;;6.47;6.00;;;;;;;10.61;100.00;96889.41;5095754;28;20165;-59
2022/10/25 00:21:26;;;;;;;6.70;5.87;;;;;;;10.60;100.00;96885.19;5095816;28;20658;-59
2022/10/25 00:23:52;;;;;;;5.83;5.43;;;;;;;10.63;100.00;96881.31;5095552;28;20184;-58
2022/10/25 00:26:18;;;;;;;6.53;6.13;;;;;;;10.70;100.00;96884.66;5078981;28;20222;-59
2022/10/25 00:28:44;;;;;;;4.90;4.60;;;;;;;10.66;100.00;96892.16;5095568;28;20214;-59
2022/10/25 00:31:12;;;;;;;6.27;5.83;;;;;;;10.68;100.00;96886.69;5095447;28;20226;-59
2022/10/25 00:33:39;;;;;;;5.27;5.03;;;;;;;10.68;100.00;96876.19;5095029;28;20177;-58
2022/10/25 00:36:21;;;;;;;6.10;5.57;;;;;;;10.63;100.00;96878.69;5094397;28;20636;-57
2022/10/25 00:38:47;;;;;;;5.50;5.10;;;;;;;10.67;100.00;96877.22;5094026;28;20184;-60
2022/10/25 00:41:15;;;;;;;4.97;4.67;;;;;;;10.71;100.00;96878.38;5095371;28;20215;-59
2022/10/25 00:43:46;;;;;;;6.20;5.70;;;;;;;10.67;100.00;96877.22;5094927;28;20267;-58
2022/10/25 00:46:24;;;;;;;6.47;5.97;;;;;;;10.65;100.00;96871.38;5092831;28;20238;-59
2022/10/25 00:49:01;;;;;;;7.80;6.00;;;;;;;10.63;100.00;96871.63;5093931;28;20609;-59
2022/10/25 00:51:36;;;;;;;5.90;5.50;;;;;;;10.65;100.00;96871.38;5095088;28;20164;-56
2022/10/25 00:54:02;;;;;;;6.57;5.93;;;;;;;10.69;100.00;96881.22;5095063;28;20193;-57
2022/10/25 00:56:32;;;;;;;7.37;5.93;;;;;;;10.68;100.00;96881.44;5088730;28;20169;-58
2022/10/25 00:59:02;;;;;;;5.83;5.53;;;;;;;10.68;100.00;96886.69;5092735;28;20223;-58
2022/10/25 01:01:28;;;;;;;6.57;6.17;;;;;;;10.65;100.00;96882.69;5094943;28;20173;-57
2022/10/25 01:03:57;;;;;;;5.90;5.53;;;;;;;10.60;100.00;96885.19;5094577;28;20255;-56
2022/10/25 01:06:32;;;;;;;6.33;5.90;;;;;;;10.60;100.00;96881.75;5094772;28;20211;-57
2022/10/25 01:08:58;;;;;;;5.90;5.33;;;;;;;10.59;100.00;96873.09;5094242;28;20660;-56
2022/10/25 01:11:23;;;;;;;6.63;6.23;;;;;;;10.62;100.00;96875.28;5094847;28;20172;-58
2022/10/25 01:13:50;;;;;;;5.57;5.17;;;;;;;10.63;100.00;96874.25;5094619;28;20239;-58
2022/10/25 01:16:33;;;;;;;6.00;5.47;;;;;;;10.64;100.00;96873.25;5094523;28;20195;-58
2022/10/25 01:19:31;;;;;;;5.23;4.93;;;;;;;10.65;100.00;96879.25;5094920;28;20268;-58
2022/10/25 01:22:10;;;;;;;5.57;5.00;;;;;;;10.63;100.00;96874.25;5094483;28;20181;-58
2022/10/25 01:24:41;;;;;;;8.53;6.17;;;;;;;10.62;100.00;96872.66;5094404;28;20196;-58
2022/10/25 01:27:18;;;;;;;6.60;6.10;;;;;;;10.57;100.00;96875.16;5094461;28;20209;-54
2022/10/25 01:30:04;;;;;;;8.27;5.80;;;;;;;10.60;100.00;96877.31;5094182;28;20196;-58
2022/10/25 01:32:55;;;;;;;6.27;5.77;;;;;;;10.54;100.00;96864.31;5094709;28;20185;-58
2022/10/25 01:35:45;;;;;;;6.47;6.07;;;;;;;10.56;100.00;96870.13;5080230;28;20207;-58
2022/10/25 01:38:19;;;;;;;5.47;5.10;;;;;;;10.53;100.00;96868.78;5094341;28;20203;-59
2022/10/25 01:41:09;;;;;;;5.73;5.30;;;;;;;10.47;100.00;96869.66;5093964;28;20183;-59
2022/10/25 01:43:46;;;;;;;6.80;6.10;;;;;;;10.50;100.00;96871.03;5093973;28;20192;-59
2022/10/25 01:46:24;;;;;;;6.23;5.73;;;;;;;10.44;100.00;96867.47;5091707;28;20232;-58
2022/10/25 01:48:57;;;;;;;5.83;5.53;;;;;;;10.39;100.00;96869.97;5092771;28;20211;-59
2022/10/25 01:51:26;;;;;;;6.30;5.80;;;;;;;10.32;100.00;96870.03;5091446;28;20176;-59
2022/10/25 01:53:52;;;;;;;6.67;6.20;;;;;;;10.39;100.00;96868.16;5093836;28;20273;-59
2022/10/25 01:56:26;;;;;;;8.27;5.50;;;;;;;10.34;100.00;96875.88;5093971;28;20260;-59
2022/10/25 01:59:00;;;;;;;6.87;6.17;;;;;;;10.37;100.00;96879.84;5093085;28;20168;-58
2022/10/25 02:01:45;;;;;;;5.83;5.53;;;;;;;10.38;100.00;96879.63;5093944;28;20199;-57
2022/10/25 02:04:37;;;;;;;6.07;5.77;;;;;;;10.29;100.00;96878.38;5087365;28;20177;-59
2022/10/25 02:07:18;;;;;;;6.83;5.90;;;;;;;10.37;100.00;96883.28;5093645;28;20204;-54
2022/10/25 02:10:18;;;;;;;6.40;6.00;;;;;;;10.33;100.00;96882.13;5092984;28;20791;-57
2022/10/25 02:12:55;;;;;;;5.87;5.57;;;;;;;10.37;100.00;96883.28;5093427;28;20542;-58
2022/10/25 02:15:33;;;;;;;9.40;6.67;;;;;;;10.38;100.00;96884.88;5078526;28;20517;-59
2022/10/25 02:18:01;;;;;;;6.27;5.77;;;;;;;10.40;100.00;96884.66;5093390;28;20208;-59
2022/10/25 02:20:31;;;;;;;6.43;6.00;;;;;;;10.45;100.00;96886.63;5092756;28;20172;-56
2022/10/25 02:22:59;;;;;;;7.90;7.20;;;;;;;10.46;100.00;96889.03;5093584;28;20173;-58
2022/10/25 02:25:25;;;;;;;6.87;6.37;;;;;;;10.50;100.00;96884.91;5093553;28;20229;-58
2022/10/25 02:27:53;;;;;;;11.77;7.33;;;;;;;10.47;100.00;96880.16;5093067;28;20230;-59
2022/10/25 02:30:19;;;;;;;9.83;7.43;;;;;;;10.44;100.00;96880.56;5093195;28;20207;-58
2022/10/25 02:32:45;;;;;;;10.17;7.47;;;;;;;10.40;100.00;96877.59;5093083;28;20228;-59
2022/10/25 02:35:17;;;;;;;7.50;6.93;;;;;;;10.41;100.00;96886.28;5092907;28;20221;-58
2022/10/25 02:37:42;;;;;;;6.73;6.23;;;;;;;10.42;100.00;96880.78;5093077;28;20211;-59
2022/10/25 02:40:09;;;;;;;7.60;6.90;;;;;;;10.45;100.00;96874.31;5092898;28;20184;-59
2022/10/25 02:45:56;;;;;;;6.67;6.17;;;;;;;10.46;100.00;96875.13;5088751;28;20231;-57
2022/10/25 02:48:22;;;;;;;9.10;6.77;;;;;;;10.38;100.00;96878.84;5091966;28;20692;-57
2022/10/25 02:50:48;;;;;;;6.27;5.53;;;;;;;10.37;100.00;96872.78;5092953;28;20176;-59
2022/10/25 02:53:13;;;;;;;7.27;6.50;;;;;;;10.38;100.00;96863.91;5092972;28;20183;-58
2022/10/25 02:55:38;;;;;;;5.97;5.47;;;;;;;10.39;100.00;96864.72;5092835;28;20181;-59
2022/10/25 02:58:04;;;;;;;6.67;6.10;;;;;;;10.36;100.00;96854.69;5092884;28;20192;-58
2022/10/25 03:00:29;;;;;;;5.90;5.47;;;;;;;10.34;100.00;96861.97;5091369;28;20173;-55
2022/10/25 03:02:54;;;;;;;11.73;5.93;;;;;;;10.31;100.00;96860.59;5092635;28;20192;-54
2022/10/25 03:05:20;;;;;;;7.77;6.10;;;;;;;10.33;100.00;96861.16;5092805;28;20176;-58
2022/10/25 03:07:45;;;;;;;8.63;5.77;;;;;;;10.31;100.00;96865.03;5092413;28;20661;-58
2022/10/25 03:10:11;;;;;;;6.27;5.77;;;;;;;10.33;100.00;96860.38;5092251;28;20211;-57
2022/10/25 03:12:36;;;;;;;6.93;6.43;;;;;;;10.33;100.00;96858.56;5092870;28;20172;-56
2022/10/25 03:15:02;;;;;;;6.70;6.10;;;;;;;10.29;100.00;96860.03;5092208;28;20633;-55
2022/10/25 03:17:27;;;;;;;6.73;6.23;;;;;;;10.25;100.00;96858.09;5092535;28;20286;-56
2022/10/25 03:19:53;;;;;;;7.73;7.00;;;;;;;10.24;100.00;96853.84;5092299;28;20197;-57
2022/10/25 03:22:18;;;;;;;6.77;6.13;;;;;;;10.22;100.00;96856.69;5092620;28;20200;-57
2022/10/25 03:24:44;;;;;;;6.77;6.27;;;;;;;10.22;100.00;96869.78;5092545;28;20172;-53
2022/10/25 03:27:09;;;;;;;7.83;6.43;;;;;;;10.18;100.00;96868.63;5092428;28;20208;-58
2022/10/25 03:29:35;;;;;;;6.70;6.00;;;;;;;10.23;100.00;96875.81;5092404;28;20287;-58
2022/10/25 03:32:00;;;;;;;7.03;6.33;;;;;;;10.21;100.00;96870.81;5092364;28;20201;-57
2022/10/25 03:34:26;;;;;;;6.80;6.10;;;;;;;10.24;100.00;96872.19;5092407;28;20696;-59
2022/10/25 03:36:51;;;;;;;6.43;5.83;;;;;;;10.26;100.00;96872.75;5092386;28;20230;-59
2022/10/25 03:39:17;;;;;;;6.60;6.10;;;;;;;10.24;100.00;96872.19;5092586;28;20180;-55
2022/10/25 03:41:42;;;;;;;6.10;5.60;;;;;;;10.28;100.00;96874.13;5092170;28;20172;-58
2022/10/25 03:44:07;;;;;;;9.43;6.63;;;;;;;10.32;100.00;96874.47;5092316;28;20279;-58
2022/10/25 03:46:33;;;;;;;6.53;6.00;;;;;;;10.35;100.00;96881.91;5089224;28;20346;-58
2022/10/25 03:48:58;;;;;;;7.90;6.50;;;;;;;10.35;100.00;96884.53;5091521;28;20205;-59
2022/10/25 03:51:24;;;;;;;10.57;7.20;;;;;;;10.37;100.00;96882.47;5092131;28;20184;-59
2022/10/25 03:53:49;;;;;;;7.47;6.27;;;;;;;10.37;100.00;96883.28;5092104;28;20582;-59
2022/10/25 03:56:15;;;;;;;7.33;5.70;;;;;;;10.41;100.00;96889.69;5092445;28;20227;-55
2022/10/25 03:58:40;;;;;;;7.67;5.60;;;;;;;10.45;100.00;96889.22;5092261;28;20536;-58
2022/10/25 04:01:09;;;;;;;9.00;6.97;;;;;;;10.40;100.00;96895.16;5092107;28;20200;-57
2022/10/25 04:03:34;;;;;;;7.33;6.47;;;;;;;10.39;100.00;96889.09;5092229;28;20256;-58
2022/10/25 04:06:00;;;;;;;9.90;6.63;;;;;;;10.38;100.00;96892.75;5107939;28;20260;-55
2022/10/25 04:08:25;;;;;;;10.63;5.83;;;;;;;10.38;100.00;96884.88;5091650;28;20212;-58
2022/10/25 04:10:51;;;;;;;6.90;6.30;;;;;;;10.33;100.00;96892.59;5091924;28;20263;-56
2022/10/25 04:13:16;;;;;;;7.73;7.07;;;;;;;10.31;100.00;96881.53;5092187;28;20173;-57
2022/10/25 04:15:41;;;;;;;6.87;6.20;;;;;;;10.33;100.00;96883.94;5091673;28;20212;-58
2022/10/25 04:18:07;;;;;;;7.40;6.70;;;;;;;10.34;100.00;96891.59;5092091;28;20312;-55
2022/10/25 04:20:33;;;;;;;8.60;6.03;;;;;;;10.38;100.00;96897.97;5092263;28;20180;-58
2022/10/25 04:22:58;;;;;;;6.63;6.13;;;;;;;10.30;100.00;96892.25;5094459;28;20172;-59
2022/10/25 04:25:27;;;;;;;8.30;6.30;;;;;;;10.36;100.00;96894.00;5095667;28;20614;-55
2022/10/25 04:27:53;;;;;;;7.03;6.33;;;;;;;10.36;100.00;96897.41;5095197;28;20211;-55
2022/10/25 04:30:19;;;;;;;10.43;7.43;;;;;;;10.35;100.00;96895.00;5096165;28;20181;-61
2022/10/25 04:32:45;;;;;;;8.17;6.67;;;;;;;10.38;100.00;96892.75;5095247;28;20169;-57
2022/10/25 04:35:11;;;;;;;7.60;7.03;;;;;;;10.40;100.00;96893.31;5094074;28;20183;-57
2022/10/25 04:37:37;;;;;;;7.13;6.53;;;;;;;10.43;100.00;96892.06;5094626;28;20665;-55
2022/10/25 04:40:04;;;;;;;10.70;6.83;;;;;;;10.42;100.00;96893.88;5094968;28;20189;-56
2022/10/25 04:42:32;;;;;;;11.80;5.57;;;;;;;10.43;100.00;96897.31;5095203;28;20184;-60
2022/10/25 04:44:58;;;;;;;7.87;7.13;;;;;;;10.40;100.00;96897.75;5095238;28;20553;-58
2022/10/25 04:47:23;;;;;;;8.97;7.37;;;;;;;10.40;100.00;96898.56;5092288;28;20244;-58
2022/10/25 04:49:49;;;;;;;8.40;7.73;;;;;;;10.42;100.00;96895.72;5094143;28;20211;-59
2022/10/25 04:52:14;;;;;;;10.43;8.27;;;;;;;10.42;100.00;96898.34;5095122;28;20177;-59
2022/10/25 04:54:40;;;;;;;9.30;7.30;;;;;;;10.39;100.00;96894.34;5094847;28;20200;-59
2022/10/25 04:57:06;;;;;;;9.80;8.93;;;;;;;10.41;100.00;96894.94;5095429;28;20196;-62
2022/10/25 04:59:31;;;;;;;7.50;6.33;;;;;;;10.44;100.00;96896.28;5094482;28;20294;-54
2022/10/25 05:01:56;;;;;;;6.27;5.80;;;;;;;10.41;100.00;96892.31;5094545;28;20177;-59
2022/10/25 05:04:22;;;;;;;8.27;6.77;;;;;;;10.39;100.00;96901.41;5094528;28;20185;-56
2022/10/25 05:06:47;;;;;;;7.33;6.83;;;;;;;10.37;100.00;96896.38;5094602;28;20207;-58
2022/10/25 05:09:13;;;;;;;7.93;7.20;;;;;;;10.40;100.00;96895.94;5094340;28;20261;-55
2022/10/25 05:11:39;;;;;;;7.37;6.47;;;;;;;10.37;100.00;96892.97;5094714;28;20176;-59
2022/10/25 05:14:05;;;;;;;7.20;6.10;;;;;;;10.38;100.00;96899.78;5094346;28;20181;-59
2022/10/25 05:16:33;;;;;;;7.50;6.63;;;;;;;10.37;100.00;96900.81;5094121;28;20229;-60
2022/10/25 05:19:00;;;;;;;7.53;6.90;;;;;;;10.35;100.00;96906.28;5094308;28;20184;-60
2022/10/25 05:21:29;;;;;;;6.40;5.80;;;;;;;10.39;100.00;96904.81;5094575;28;20577;-61
2022/10/25 05:24:05;;;;;;;9.80;7.80;;;;;;;10.36;100.00;96907.09;5094030;28;20631;-57
2022/10/25 05:26:31;;;;;;;7.43;6.83;;;;;;;10.35;100.00;96914.16;5091626;28;20199;-61
2022/10/25 05:28:56;;;;;;;6.60;5.60;;;;;;;10.30;100.00;96915.84;5094079;28;20197;-60
2022/10/25 05:31:26;;;;;;;7.37;5.83;;;;;;;10.27;100.00;96916.25;5093981;28;20250;-61
2022/10/25 05:33:53;;;;;;;6.53;5.97;;;;;;;10.32;100.00;96919.81;5086973;28;20185;-58
2022/10/25 05:36:19;;;;;;;7.93;6.27;;;;;;;10.32;100.00;96913.78;5094114;28;20553;-60
2022/10/25 05:38:45;;;;;;;7.00;6.40;;;;;;;10.20;100.00;96924.19;5094304;28;20267;-58
2022/10/25 05:41:12;;;;;;;8.33;7.50;;;;;;;10.22;100.00;96922.16;5094424;28;20172;-59
2022/10/25 05:43:38;;;;;;;9.00;8.10;;;;;;;10.23;100.00;96917.75;5093838;28;20215;-58
2022/10/25 05:46:09;;;;;;;8.93;7.13;;;;;;;10.23;100.00;96921.16;5091177;28;20263;-59
2022/10/25 05:48:35;;;;;;;8.90;8.03;;;;;;;10.17;100.00;96921.22;5093069;28;20562;-60
2022/10/25 05:51:18;;;;;;;7.67;6.90;;;;;;;10.16;100.00;96924.84;5093710;28;20183;-59
2022/10/25 05:53:45;;;;;;;8.33;7.63;;;;;;;10.22;100.00;96926.63;5093632;28;20493;-58
2022/10/25 05:56:12;;;;;;;8.20;7.60;;;;;;;10.17;100.00;96926.47;5086232;28;20180;-60
2022/10/25 05:58:37;;;;;;;11.03;7.77;;;;;;;10.20;100.00;96929.44;5089141;28;20249;-60
2022/10/25 06:01:03;;;;;;;7.40;6.70;;;;;;;10.22;100.00;96937.09;5093425;28;20180;-59
2022/10/25 06:03:28;;;;;;;6.97;6.27;;;;;;;10.15;100.00;96923.22;5093205;28;20218;-59
2022/10/25 06:06:04;;;;;;;7.97;7.20;;;;;;;10.14;100.00;96938.16;5093052;28;20169;-67
2022/10/25 06:08:31;;;;;;;7.53;6.87;;;;;;;10.19;100.00;96933.09;5089282;28;20196;-61
2022/10/25 06:11:05;;;;;;;8.47;7.13;;;;;;;10.23;100.00;96939.50;5092024;28;20173;-60
2022/10/25 06:13:30;;;;;;;7.90;7.20;;;;;;;10.28;100.00;96947.50;5086439;28;20718;-61
2022/10/25 06:16:25;;;;;;;7.80;6.17;;;;;;;10.35;100.00;96942.19;5092987;28;20322;-59
2022/10/25 06:18:52;;;;;;;5.87;5.37;;;;;;;10.43;100.00;96937.41;5078092;28;20200;-58
2022/10/25 06:21:20;;;;;;;7.03;5.90;;;;;;;10.52;100.00;96939.75;5093238;28;20177;-58
2022/10/25 06:23:46;;;;;;;8.97;6.30;;;;;;;10.57;100.00;96937.25;5091603;28;20184;-58
2022/10/25 06:26:15;;;;;;;8.83;8.13;;;;;;;10.62;100.00;96940.81;5092799;28;20637;-55
2022/10/25 06:28:41;;;;;;;5.90;5.40;;;;;;;10.76;100.00;96951.88;5092746;28;20204;-51
2022/10/25 06:31:14;;;;;;;7.60;5.90;;;;;;;10.72;100.00;96964.66;5092840;28;20188;-51
2022/10/25 06:33:40;;;;;;;7.97;5.43;;;;;;;10.80;100.00;96972.22;5092586;28;20188;-55
2022/10/25 06:36:09;;;;;;;8.50;4.93;;;;;;;10.88;100.00;96972.91;5085176;28;20548;-53
2022/10/25 06:38:34;;;;;;;6.30;5.70;;;;;;;10.95;100.00;96977.03;5092526;28;20292;-53
2022/10/25 06:41:02;;;;;;;7.37;6.87;;;;;;;10.98;100.00;96984.44;5092356;28;20172;-51
2022/10/25 06:43:28;;;;;;;7.17;6.57;;;;;;;11.09;100.00;96985.53;5092507;28;20180;-55
2022/10/25 06:45:54;;;;;;;7.40;6.80;;;;;;;11.18;100.00;96987.59;5089094;28;20169;-55
2022/10/25 06:48:20;;;;;;;8.57;7.77;;;;;;;11.28;100.00;96992.28;5091253;28;20711;-54
2022/10/25 06:50:46;;;;;;;8.33;7.70;;;;;;;11.98;100.00;96989.75;5092584;28;20184;-58
2022/10/25 06:53:33;;;;;;;8.73;8.23;;;;;;;12.85;100.00;96996.47;5091909;28;20161;-60
2022/10/25 06:56:03;;;;;;;8.60;7.77;;;;;;;12.25;100.00;96996.09;5080211;28;20176;-57
2022/10/25 06:58:30;;;;;;;6.67;6.07;;;;;;;12.00;100.00;97013.94;5081730;28;20676;-55
2022/10/25 07:01:00;;;;;;;7.43;6.83;;;;;;;11.97;100.00;97017.03;5091059;28;20168;-56
2022/10/25 07:03:29;;;;;;;8.20;7.70;;;;;;;12.06;100.00;97019.06;5090641;28;20262;-58
2022/10/25 07:05:58;;;;;;;8.10;7.63;;;;;;;11.98;100.00;97018.63;5091357;28;20550;-57
2022/10/25 07:08:23;;;;;;;10.33;9.33;;;;;;;12.13;100.00;97020.78;5091367;28;20212;-58
2022/10/25 07:10:55;;;;;;;8.10;7.50;;;;;;;12.14;100.00;97022.38;5076259;28;20176;-58
2022/10/25 07:13:21;;;;;;;6.63;6.13;;;;;;;12.27;100.00;97022.94;5071669;28;20166;-57
2022/10/25 07:15:46;;;;;;;7.87;7.27;;;;;;;12.17;100.00;97029.78;5071564;28;20161;-57
2022/10/25 07:18:11;;;;;;;8.17;7.60;;;;;;;12.35;100.00;97027.03;5070697;28;20544;-56
2022/10/25 07:20:37;;;;;;;11.23;9.40;;;;;;;12.22;100.00;97035.16;5071975;28;20528;-54
2022/10/25 07:23:02;;;;;;;8.30;6.97;;;;;;;12.35;100.00;97029.66;5071562;28;20266;-56
2022/10/25 07:25:27;;;;;;;7.47;5.23;;;;;;;12.41;100.00;97026.91;5083888;28;20631;-57
2022/10/25 07:27:53;;;;;;;6.87;6.37;;;;;;;12.52;100.00;97027.13;5092048;28;20208;-54
2022/10/25 07:30:18;;;;;;;7.87;7.27;;;;;;;12.64;100.00;97031.31;5091766;28;20164;-56
2022/10/25 07:32:44;;;;;;;12.10;11.37;;;;;;;12.56;100.00;97034.31;5091239;28;20176;-52
2022/10/25 07:35:09;;;;;;;17.30;16.10;;;;;;;12.74;100.00;97042.03;5087767;28;20176;-57
2022/10/25 07:37:34;;;;;;;22.10;20.33;;;;;;;12.73;100.00;97037.81;5086754;28;20200;-64
2022/10/25 07:40:00;;;;;;;20.63;19.47;;;;;;;12.71;100.00;97041.69;5090559;28;20204;-55
2022/10/25 07:42:25;;;;;;;17.40;16.23;;;;;;;12.72;100.00;97038.03;5090521;28;20180;-57
2022/10/25 07:44:50;;;;;;;12.23;11.23;;;;;;;12.83;100.00;97045.09;5090086;28;20181;-55
2022/10/25 07:47:16;;;;;;;9.67;9.07;;;;;;;12.90;100.00;97038.66;5081939;28;20308;-57
2022/10/25 07:49:41;;;;;;;9.17;8.53;;;;;;;12.96;100.00;97047.44;5091528;28;20560;-54
2022/10/25 07:52:07;;;;;;;10.93;9.87;;;;;;;12.91;100.00;97044.72;5091317;28;20188;-55
2022/10/25 07:54:32;;;;;;;10.07;9.47;;;;;;;13.10;100.00;97045.31;5091119;28;20169;-51
2022/10/25 07:56:58;;;;;;;10.23;9.60;;;;;;;13.15;100.00;97048.88;5091576;28;20204;-57
2022/10/25 07:59:23;;;;;;;12.73;11.73;;;;;;;13.22;100.00;97046.91;5082440;28;20161;-58
2022/10/25 08:01:49;;;;;;;21.33;20.10;;;;;;;13.20;100.00;97037.66;5095083;28;20650;-57
2022/10/25 08:04:15;;;;;;;24.30;22.67;;;;;;;13.29;100.00;97039.66;5092051;28;20179;-56
2022/10/25 08:06:41;;;;;;;20.53;19.33;;;;;;;13.20;100.00;97048.19;5094956;28;20259;-55
2022/10/25 08:09:06;;;;;;;23.30;21.87;;;;;;;13.22;100.00;97041.63;5094930;28;20208;-57
2022/10/25 08:11:32;;;;;;;34.63;32.53;;;;;;;13.37;100.00;97035.84;5095681;28;20180;-57
2022/10/25 08:13:57;;;;;;;24.83;23.47;;;;;;;13.29;100.00;97046.75;5095191;28;20176;-55
2022/10/25 08:16:22;;;;;;;25.30;23.83;;;;;;;13.27;100.00;97048.81;5095125;28;20185;-51
2022/10/25 08:18:48;;;;;;;10.50;9.67;;;;;;;13.36;100.00;97044.78;5094540;28;20310;-56
2022/10/25 08:21:13;;;;;;;9.97;7.90;;;;;;;13.35;100.00;97042.38;5095278;28;20271;-55
2022/10/25 08:23:39;;;;;;;16.23;15.33;;;;;;;13.32;100.00;97036.53;5095149;28;20180;-56
2022/10/25 08:26:05;;;;;;;11.87;11.17;;;;;;;13.57;100.00;97041.44;5094999;28;20165;-57
2022/10/25 08:28:30;;;;;;;15.70;14.20;;;;;;;13.52;100.00;97038.72;5094966;28;20227;-54
2022/10/25 08:30:56;;;;;;;14.00;13.13;;;;;;;13.61;100.00;97042.56;5094928;28;20184;-55
2022/10/25 08:33:24;;;;;;;15.47;14.57;;;;;;;13.62;100.00;97040.72;5094656;28;20188;-56
2022/10/25 08:35:49;;;;;;;12.77;11.97;;;;;;;13.49;100.00;97033.13;5095370;28;20173;-57
2022/10/25 08:38:14;;;;;;;10.13;9.47;;;;;;;13.59;100.00;97033.31;5094236;28;20197;-55
2022/10/25 08:40:54;;;;;;;11.27;10.63;;;;;;;13.62;100.00;97043.34;5094775;28;20211;-59
2022/10/25 08:43:54;;;;;;;8.47;7.77;;;;;;;13.56;100.00;97039.84;5087411;28;20180;-57
2022/10/25 08:46:30;;;;;;;7.30;6.63;;;;;;;13.70;100.00;97046.41;5079250;28;20239;-57
2022/10/25 08:49:08;;;;;;;7.20;6.70;;;;;;;13.67;100.00;97038.16;5094246;28;20247;-55
2022/10/25 08:51:39;;;;;;;9.93;9.13;;;;;;;13.85;100.00;97045.03;5094317;28;20260;-56
2022/10/25 08:54:18;;;;;;;7.87;7.27;;;;;;;13.84;100.00;97044.22;5093855;28;20165;-57
2022/10/25 08:56:44;;;;;;;8.27;7.77;;;;;;;13.90;100.00;97035.38;5093985;28;20270;-57
2022/10/25 08:59:16;;;;;;;8.27;7.57;;;;;;;13.97;100.00;97041.28;5094487;28;20182;-58
2022/10/25 09:01:54;;;;;;;9.33;8.73;;;;;;;14.03;100.00;97044.78;5094460;28;20211;-57
2022/10/25 09:04:21;;;;;;;12.20;11.10;;;;;;;14.12;100.00;97043.31;5092714;28;20532;-54
2022/10/25 09:07:08;;;;;;;9.07;8.27;;;;;;;14.12;100.00;97043.31;5094301;28;20227;-54
2022/10/25 09:09:58;;;;;;;8.17;7.43;;;;;;;14.09;100.00;97049.88;5093883;28;20269;-57
2022/10/25 09:12:48;;;;;;;9.00;8.27;;;;;;;14.19;100.00;97048.44;5094272;28;20192;-54
2022/10/25 09:15:37;;;;;;;6.40;5.80;;;;;;;14.24;100.00;97053.75;5093923;28;20601;-53
2022/10/25 09:18:13;;;;;;;7.13;6.57;;;;;;;14.40;100.00;97058.22;5093372;28;20250;-50
2022/10/25 09:20:47;;;;;;;10.90;8.53;;;;;;;14.42;100.00;97058.78;5093869;28;20659;-53
2022/10/25 09:23:18;;;;;;;7.80;7.20;;;;;;;14.46;100.00;97052.00;5094220;28;20179;-54
2022/10/25 09:26:10;;;;;;;6.97;6.37;;;;;;;14.61;100.00;97057.44;5093679;28;20314;-57
2022/10/25 09:29:03;;;;;;;9.20;8.40;;;;;;;14.62;100.00;97060.88;5092125;28;20260;-56
2022/10/25 09:31:34;;;;;;;6.60;6.03;;;;;;;14.67;100.00;97053.84;5094155;28;20263;-56
2022/10/25 09:34:04;;;;;;;10.10;9.13;;;;;;;14.78;100.00;97062.66;5091843;28;20200;-54
2022/10/25 09:36:36;;;;;;;8.37;7.67;;;;;;;14.77;100.00;97053.94;5093671;28;20177;-56
2022/10/25 09:39:11;;;;;;;8.30;7.50;;;;;;;14.80;100.00;97056.09;5093598;28;20263;-57
2022/10/25 09:41:41;;;;;;;7.47;5.97;;;;;;;14.90;100.00;97050.94;5094070;28;20225;-57
2022/10/25 09:44:16;;;;;;;6.90;6.40;;;;;;;14.84;100.00;97051.94;5093307;28;20200;-55
2022/10/25 09:46:50;;;;;;;8.27;7.63;;;;;;;14.77;100.00;97058.41;5089543;28;20239;-55
2022/10/25 09:49:53;;;;;;;22.43;21.13;;;;;;;14.91;100.00;97054.38;5093624;28;20200;-58
2022/10/25 09:52:27;;;;;;;28.07;26.40;;;;;;;14.94;100.00;97057.31;5075310;28;20749;-57
2022/10/25 09:54:59;;;;;;;32.73;30.67;;;;;;;14.92;100.00;97055.97;5091567;28;20180;-57
2022/10/25 09:57:24;;;;;;;17.67;16.77;;;;;;;14.94;100.00;97057.31;5092757;28;20243;-51
2022/10/25 09:59:51;;;;;;;7.43;6.80;;;;;;;15.06;100.00;97057.19;5092319;28;20978;-52
2022/10/25 10:02:24;;;;;;;19.30;18.13;;;;;;;15.18;100.00;97057.84;5093226;28;20181;-56
2022/10/25 10:04:50;;;;;;;54.80;51.40;;;;;;;15.21;100.00;97051.28;5093028;28;20180;-58
2022/10/25 10:07:28;;;;;;;41.67;39.37;;;;;;;15.17;100.00;97044.88;5093243;28;20688;-53
2022/10/25 10:09:57;;;;;;;23.90;22.13;;;;;;;15.08;100.00;97043.75;5092803;28;20192;-58
2022/10/25 10:12:49;;;;;;;23.43;22.17;;;;;;;15.11;100.00;97049.31;5093107;28;20173;-59
2022/10/25 10:15:21;;;;;;;11.90;10.90;;;;;;;15.13;100.00;97051.72;5090768;28;20556;-60
2022/10/25 10:18:17;;;;;;;16.40;15.33;;;;;;;15.22;100.00;97056.28;5092869;28;20680;-58
2022/10/25 10:21:03;;;;;;;14.37;13.47;;;;;;;15.25;100.00;97049.72;5091589;28;20225;-59
2022/10/25 10:23:47;;;;;;;14.60;13.50;;;;;;;15.31;100.00;97049.53;5087715;28;20173;-56
2022/10/25 10:26:34;;;;;;;19.85;18.63;;;;;;;15.25;100.00;97050.53;5093130;28;20176;-58
2022/10/25 10:29:10;;;;;;;23.77;22.47;;;;;;;15.36;100.00;97054.06;5090962;28;20222;-58
2022/10/25 10:31:39;;;;;;;28.17;26.23;;;;;;;15.45;100.00;97043.81;5092264;28;20183;-55
2022/10/25 10:34:19;;;;;;;12.70;11.90;;;;;;;15.46;100.00;97046.22;5091568;28;20637;-57
2022/10/25 10:36:46;;;;;;;14.90;14.00;;;;;;;15.46;100.00;97050.69;5092128;28;20192;-65
2022/10/25 10:39:19;;;;;;;20.90;19.63;;;;;;;15.44;100.00;97037.75;5091954;28;20552;-59
2022/10/25 10:42:03;;;;;;;10.87;10.10;;;;;;;15.58;100.00;97035.53;5089402;28;20176;-59
2022/10/25 10:44:33;;;;;;;12.30;11.63;;;;;;;15.73;100.00;97035.63;5092654;28;20193;-59
2022/10/25 10:47:10;;;;;;;10.23;9.60;;;;;;;15.80;98.79;97034.38;5089011;28;20434;-58
2022/10/25 10:49:38;;;;;;;9.50;8.87;;;;;;;15.77;97.47;97037.50;5092028;28;20204;-57
2022/10/25 10:52:05;;;;;;;8.23;7.80;;;;;;;15.84;94.62;97031.22;5076121;28;20621;-57
2022/10/25 10:54:49;;;;;;;10.27;9.57;;;;;;;15.84;93.98;97034.66;5092420;28;20529;-60
2022/10/25 10:57:30;;;;;;;7.80;7.30;;;;;;;15.99;92.48;97026.06;5092495;28;20321;-59
2022/10/25 10:59:56;;;;;;;6.60;6.20;;;;;;;16.07;92.30;97018.44;5091801;28;20234;-61
2022/10/25 11:02:37;;;;;;;5.85;5.35;;;;;;;16.17;91.84;97017.69;5092353;28;20169;-59
2022/10/25 11:05:21;;;;;;;6.22;5.63;;;;;;;16.13;91.86;97019.25;5090795;28;20251;-60
2022/10/25 11:08:01;;;;;;;5.45;4.95;;;;;;;16.27;91.62;97017.75;5092293;28;20196;-59
2022/10/25 11:10:29;;;;;;;5.70;5.15;;;;;;;16.39;90.66;97018.31;5092558;28;20717;-59
2022/10/25 11:13:18;;;;;;;12.98;12.07;;;;;;;16.41;90.69;97010.94;5091532;28;20621;-53
2022/10/25 11:15:55;;;;;;;11.23;10.45;;;;;;;16.41;89.80;97010.94;5081155;28;20229;-57
2022/10/25 11:18:34;;;;;;;8.55;7.85;;;;;;;16.58;88.55;97013.41;5090873;28;20207;-60
2022/10/25 11:21:09;;;;;;;30.27;28.35;;;;;;;16.68;86.65;97012.66;5092795;28;20177;-59
2022/10/25 11:23:51;;;;;;;91.00;85.63;;;;;;;16.67;87.26;97011.88;5091853;28;20548;-63
2022/10/25 11:26:38;;;;;;;90.35;85.40;;;;;;;16.73;86.79;97004.72;5091194;28;20180;-59
2022/10/25 11:29:17;;;;;;;78.10;73.82;;;;;;;16.73;87.01;97000.25;5092106;28;20303;-58
2022/10/25 11:32:16;;;;;;;19.30;18.25;;;;;;;16.76;85.27;97004.22;5091974;28;20184;-57
2022/10/25 11:34:52;;;;;;;18.75;17.58;;;;;;;16.90;84.97;97006.13;5091744;28;20512;-60
2022/10/25 11:37:39;;;;;;;16.38;15.43;;;;;;;16.79;84.07;96998.41;5096631;28;20245;-59
2022/10/25 11:40:14;;;;;;;12.32;11.63;;;;;;;16.87;84.14;96995.25;5095961;28;20187;-59
2022/10/25 11:42:53;;;;;;;12.30;11.63;;;;;;;16.82;82.10;97003.19;5095963;28;20179;-58